Time;durP1;ratioP1;P1;durP2;ratioP2;P2;SDS_P1;SDS_P2;PMS_P1;PMS_P2;Temp;Humidity;BMP_temperature;BMP_pressure;BME280_temperature;BME280_humidity;BME280_pressure;Samples;Min_cycle;Max_cycle;Signal;HPM_P1;HPM_P2
2023/10/19 00:00:39;;;;;;;1999.90;999.90;;;10.30;99.90;;;;;;5039988;28;20075;-69
2023/10/19 00:03:08;;;;;;;1999.90;999.90;;;10.30;99.90;;;;;;5044680;28;20029;-69
2023/10/19 00:05:34;;;;;;;1999.90;999.90;;;10.30;99.90;;;;;;5040897;28;20090;-69
2023/10/19 00:08:05;;;;;;;1999.90;999.90;;;10.40;99.90;;;;;;5056025;28;20117;-69
2023/10/19 00:10:37;;;;;;;1999.90;999.90;;;10.40;99.90;;;;;;5046850;28;20025;-68
2023/10/19 00:13:08;;;;;;;1999.90;999.90;;;10.40;99.90;;;;;;5055493;28;20312;-68
2023/10/19 00:15:39;;;;;;;1999.90;999.90;;;10.40;99.90;;;;;;5047504;28;20056;-68
2023/10/19 00:18:24;;;;;;;1999.90;999.90;;;10.40;99.90;;;;;;5039883;28;20033;-69
2023/10/19 00:20:52;;;;;;;1999.90;999.90;;;10.50;99.90;;;;;;5053995;28;20324;-68
2023/10/19 00:23:31;;;;;;;1999.90;999.90;;;10.50;99.90;;;;;;5042785;28;20316;-69
2023/10/19 00:26:08;;;;;;;1999.90;999.90;;;10.50;99.90;;;;;;5049934;28;20428;-69
2023/10/19 00:28:38;;;;;;;1999.90;999.90;;;10.50;99.90;;;;;;5042672;28;20029;-68
2023/10/19 00:31:08;;;;;;;1999.90;999.90;;;10.60;99.90;;;;;;5051935;28;20442;-75
2023/10/19 00:33:38;;;;;;;1999.90;999.90;;;10.50;99.90;;;;;;5045043;28;20362;-69
2023/10/19 00:36:07;;;;;;;1999.90;999.90;;;10.60;99.90;;;;;;5046940;28;20036;-69
2023/10/19 00:43:36;;;;;;;1999.90;999.90;;;10.70;99.90;;;;;;5041365;28;20100;-69
2023/10/19 00:48:45;;;;;;;1999.90;999.90;;;10.70;99.90;;;;;;5047861;28;20036;-69
2023/10/19 00:53:59;;;;;;;1999.90;999.90;;;10.80;99.90;;;;;;5055380;28;20036;-69
2023/10/19 00:56:30;;;;;;;1999.90;999.90;;;10.80;99.90;;;;;;5056173;28;20034;-69
2023/10/19 00:59:00;;;;;;;1999.90;999.90;;;10.80;99.90;;;;;;5046350;28;20060;-68
2023/10/19 01:01:31;;;;;;;1999.90;999.90;;;10.90;99.90;;;;;;5053925;28;20017;-68
2023/10/19 01:03:57;;;;;;;1999.90;999.90;;;10.90;99.90;;;;;;5048464;28;20452;-68
2023/10/19 01:06:25;;;;;;;1999.90;999.90;;;10.90;99.90;;;;;;5053343;28;20025;-68
2023/10/19 01:08:52;;;;;;;1999.90;999.90;;;10.90;99.90;;;;;;5052573;28;20057;-70
2023/10/19 01:11:20;;;;;;;1999.90;999.90;;;10.90;99.90;;;;;;5053008;28;20118;-68
2023/10/19 01:13:48;;;;;;;1999.90;999.90;;;11.00;99.90;;;;;;5044860;28;20369;-68
2023/10/19 01:16:20;;;;;;;1999.90;999.90;;;11.00;99.90;;;;;;5048498;28;20040;-68
2023/10/19 01:18:47;;;;;;;1999.90;999.90;;;11.10;99.90;;;;;;5041310;28;20147;-68
2023/10/19 01:21:18;;;;;;;1999.90;999.90;;;11.10;99.90;;;;;;5042786;28;20048;-68
2023/10/19 01:23:46;;;;;;;1999.90;999.90;;;11.10;99.90;;;;;;5040982;28;20029;-68
2023/10/19 01:26:18;;;;;;;1999.90;999.90;;;11.20;99.90;;;;;;5043843;28;20037;-68
2023/10/19 01:28:47;;;;;;;1999.90;999.90;;;11.20;99.90;;;;;;5049018;28;20052;-69
2023/10/19 01:33:57;;;;;;;1999.90;999.90;;;11.30;99.90;;;;;;5044214;28;20404;-69
2023/10/19 01:36:24;;;;;;;1999.90;999.90;;;11.30;99.90;;;;;;5055372;28;20021;-68
2023/10/19 01:38:55;;;;;;;1999.90;999.90;;;11.40;99.90;;;;;;5051585;28;20024;-68
2023/10/19 01:41:23;;;;;;;1999.90;999.90;;;11.40;99.90;;;;;;5035962;28;20116;-69
2023/10/19 01:43:54;;;;;;;1999.90;999.90;;;11.50;99.90;;;;;;5053944;28;20358;-68
2023/10/19 01:46:23;;;;;;;1999.90;999.90;;;11.60;99.90;;;;;;5046957;28;20459;-69
2023/10/19 01:48:54;;;;;;;1999.90;999.90;;;11.60;99.90;;;;;;5038463;28;20045;-69
2023/10/19 01:51:23;;;;;;;1999.90;999.90;;;11.60;99.90;;;;;;5052089;28;20331;-69
2023/10/19 01:53:48;;;;;;;1999.90;999.90;;;11.70;99.90;;;;;;5052777;28;20175;-69
2023/10/19 01:56:16;;;;;;;1999.90;999.90;;;11.70;99.90;;;;;;5037841;28;20104;-69
2023/10/19 01:58:46;;;;;;;1999.90;999.90;;;11.80;99.90;;;;;;5049955;28;20017;-68
2023/10/19 02:03:43;;;;;;;1999.90;999.90;;;11.80;99.90;;;;;;5048496;28;20115;-79
2023/10/19 02:06:19;;;;;;;1999.90;999.90;;;11.90;99.90;;;;;;5036448;28;20029;-69
2023/10/19 02:09:14;;;;;;;1999.90;999.90;;;12.00;99.90;;;;;;5040967;28;20036;-69
2023/10/19 02:11:45;;;;;;;1999.90;999.90;;;12.10;99.90;;;;;;5041827;28;20095;-69
2023/10/19 02:14:14;;;;;;;1999.90;999.90;;;12.10;99.90;;;;;;5035157;28;20018;-69
2023/10/19 02:16:44;;;;;;;1999.90;999.90;;;12.20;99.90;;;;;;5039195;28;20113;-70
2023/10/19 02:19:10;;;;;;;1999.90;999.90;;;12.30;99.90;;;;;;5035690;28;20025;-70
2023/10/19 02:21:40;;;;;;;1999.90;999.90;;;12.30;99.90;;;;;;5035258;28;20075;-69
2023/10/19 02:24:14;;;;;;;1999.90;999.90;;;12.40;99.90;;;;;;5041416;28;20036;-70
2023/10/19 02:26:41;;;;;;;1999.90;999.90;;;12.40;99.90;;;;;;5036436;28;20033;-78
2023/10/19 02:29:09;;;;;;;;;;;12.50;99.90;;;;;;5040354;28;20037;-70
2023/10/19 02:31:40;;;;;;;1999.90;999.90;;;12.50;99.90;;;;;;5041927;28;20220;-71
2023/10/19 02:34:10;;;;;;;1999.90;999.90;;;12.60;99.90;;;;;;5042770;28;20044;-70
2023/10/19 02:36:37;;;;;;;1999.90;999.90;;;12.60;99.90;;;;;;5040073;28;20023;-73
2023/10/19 02:39:08;;;;;;;1999.90;999.90;;;12.60;99.90;;;;;;5054936;28;20029;-70
2023/10/19 02:41:39;;;;;;;1999.90;999.90;;;12.70;99.90;;;;;;5054325;28;20367;-70
2023/10/19 02:44:19;;;;;;;1999.90;999.90;;;12.70;99.90;;;;;;5054400;28;20521;-79
2023/10/19 02:46:50;;;;;;;1999.90;999.90;;;12.80;99.90;;;;;;5052192;28;20044;-79
2023/10/19 02:49:22;;;;;;;1999.90;999.90;;;12.80;99.90;;;;;;5042514;28;20069;-70
2023/10/19 02:51:49;;;;;;;1999.90;999.90;;;12.90;99.90;;;;;;5044566;28;20025;-79
2023/10/19 02:54:22;;;;;;;1999.90;999.90;;;13.00;99.90;;;;;;5043435;28;20051;-71
2023/10/19 02:56:56;;;;;;;1999.90;999.90;;;13.10;99.90;;;;;;5046830;28;20031;-70
2023/10/19 02:59:24;;;;;;;1999.90;999.90;;;13.20;99.90;;;;;;5054499;28;20059;-71
2023/10/19 03:02:06;;;;;;;1999.90;999.90;;;13.20;99.90;;;;;;5048160;28;20395;-78
2023/10/19 03:04:35;;;;;;;1999.90;999.90;;;13.30;99.90;;;;;;5053527;28;20037;-71
2023/10/19 03:07:03;;;;;;;1999.90;999.90;;;13.30;99.90;;;;;;5051219;28;20017;-70
2023/10/19 03:09:29;;;;;;;1999.90;999.90;;;13.30;99.90;;;;;;5035767;28;20021;-70
2023/10/19 03:11:59;;;;;;;1999.90;999.90;;;13.40;99.90;;;;;;5040129;28;20021;-70
2023/10/19 03:14:26;;;;;;;1999.90;999.90;;;13.50;99.90;;;;;;5043900;28;20017;-70
2023/10/19 03:16:56;;;;;;;1999.90;999.90;;;13.50;99.90;;;;;;5053989;28;20090;-71
2023/10/19 03:19:22;;;;;;;1999.90;999.90;;;13.60;99.90;;;;;;5050502;28;20412;-71
2023/10/19 03:21:50;;;;;;;1999.90;999.90;;;13.70;99.90;;;;;;5046314;28;20116;-78
2023/10/19 03:24:42;;;;;;;1999.90;999.90;;;13.80;99.90;;;;;;5044010;28;20300;-70
2023/10/19 03:27:17;;;;;;;1999.90;999.90;;;13.80;99.90;;;;;;5057929;28;20025;-70
2023/10/19 03:29:53;;;;;;;1999.90;999.90;;;13.80;99.90;;;;;;5048881;28;20108;-71
2023/10/19 03:32:22;;;;;;;1999.90;999.90;;;13.80;99.90;;;;;;5048011;28;20324;-70
2023/10/19 03:34:55;;;;;;;1999.90;999.90;;;13.80;99.90;;;;;;5056049;28;20033;-70
2023/10/19 03:37:22;;;;;;;1999.90;999.90;;;13.80;99.90;;;;;;5058208;28;20380;-78
2023/10/19 03:39:48;;;;;;;1999.90;999.90;;;13.90;99.90;;;;;;5051889;28;20052;-70
2023/10/19 03:42:14;;;;;;;1999.90;999.90;;;13.90;99.90;;;;;;5048409;28;20054;-70
2023/10/19 03:47:19;;;;;;;1999.90;999.90;;;13.90;99.90;;;;;;5048548;28;20039;-70
2023/10/19 03:49:46;;;;;;;1999.90;999.90;;;13.90;99.90;;;;;;5052289;28;20056;-70
2023/10/19 03:54:39;;;;;;;1999.90;999.90;;;13.90;99.90;;;;;;5048195;28;20293;-71
2023/10/19 03:57:11;;;;;;;1999.90;999.90;;;13.90;99.90;;;;;;5044471;28;20025;-71
2023/10/19 03:59:41;;;;;;;1999.90;999.90;;;13.90;99.90;;;;;;5045791;28;20030;-70
2023/10/19 04:02:10;;;;;;;1999.90;999.90;;;13.90;99.90;;;;;;5051520;28;20036;-71
2023/10/19 04:04:39;;;;;;;1999.90;999.90;;;13.90;99.90;;;;;;5049913;28;20059;-71
2023/10/19 04:07:11;;;;;;;1999.90;999.90;;;13.90;99.90;;;;;;5041558;28;20025;-70
2023/10/19 04:09:56;;;;;;;1999.90;999.90;;;13.90;99.90;;;;;;5047942;28;20041;-70
2023/10/19 04:12:23;;;;;;;1999.90;999.90;;;13.80;99.90;;;;;;5044302;28;20036;-70
2023/10/19 04:14:49;;;;;;;1999.90;999.90;;;13.80;99.90;;;;;;5055933;28;20021;-71
2023/10/19 04:17:17;;;;;;;1999.90;999.90;;;13.70;99.90;;;;;;5052602;28;20400;-70
2023/10/19 04:19:43;;;;;;;1999.90;999.90;;;13.70;99.90;;;;;;5047198;28;20700;-70
2023/10/19 04:22:21;;;;;;;;;;;13.70;99.90;;;;;;5057508;28;20036;-80
2023/10/19 04:24:48;;;;;;;1999.90;999.90;;;13.60;99.90;;;;;;5046044;28;19917;-70
2023/10/19 04:27:14;;;;;;;1999.90;999.90;;;13.60;99.90;;;;;;5050527;28;20033;-70
2023/10/19 04:29:43;;;;;;;1999.90;999.90;;;13.60;99.90;;;;;;5057011;28;20029;-70
2023/10/19 04:32:09;;;;;;;1999.90;999.90;;;13.50;99.90;;;;;;5048519;28;20031;-70
2023/10/19 04:34:36;;;;;;;1999.90;999.90;;;13.50;99.90;;;;;;5054815;28;20029;-70
2023/10/19 04:37:06;;;;;;;1999.90;999.90;;;13.40;99.90;;;;;;5045575;28;20063;-72
2023/10/19 04:39:34;;;;;;;1999.90;999.90;;;13.40;99.90;;;;;;5038108;28;20356;-72
2023/10/19 04:42:00;;;;;;;1999.90;999.90;;;13.40;99.90;;;;;;5046899;28;20030;-70
2023/10/19 04:44:26;;;;;;;1999.90;999.90;;;13.30;99.90;;;;;;5050746;28;20029;-70
2023/10/19 04:46:52;;;;;;;1999.90;999.90;;;13.30;99.90;;;;;;5056917;28;20308;-70
2023/10/19 04:49:18;;;;;;;1999.90;999.90;;;13.30;99.90;;;;;;5054797;28;20045;-70
2023/10/19 04:51:44;;;;;;;1999.90;999.90;;;13.30;99.90;;;;;;5049223;28;20148;-70
2023/10/19 04:54:10;;;;;;;1999.90;999.90;;;13.30;99.90;;;;;;5046487;28;20076;-80
2023/10/19 04:56:36;;;;;;;1999.90;999.90;;;13.30;99.90;;;;;;5056074;28;20022;-70
2023/10/19 04:59:02;;;;;;;1999.90;999.90;;;13.30;99.90;;;;;;5045809;28;20029;-70
2023/10/19 05:01:28;;;;;;;;;;;13.30;99.90;;;;;;5044327;28;20052;-70
2023/10/19 05:03:54;;;;;;;1999.90;999.90;;;13.30;99.90;;;;;;5056742;28;19947;-70
2023/10/19 05:06:19;;;;;;;1999.90;999.90;;;13.40;99.90;;;;;;5053155;28;20060;-70
2023/10/19 05:08:46;;;;;;;1999.90;999.90;;;13.40;99.90;;;;;;5056170;28;20356;-70
2023/10/19 05:11:12;;;;;;;1999.90;999.90;;;13.40;99.90;;;;;;5053416;28;20044;-72
2023/10/19 05:13:39;;;;;;;1999.90;999.90;;;13.40;99.90;;;;;;5054250;28;20082;-71
2023/10/19 05:16:05;;;;;;;1999.90;999.90;;;13.50;99.90;;;;;;5056247;28;20261;-70
2023/10/19 05:18:31;;;;;;;1999.90;999.90;;;13.50;99.90;;;;;;5055688;28;20033;-70
2023/10/19 05:20:57;;;;;;;1999.90;999.90;;;13.50;99.90;;;;;;5045428;28;20033;-71
2023/10/19 05:23:27;;;;;;;1999.90;999.90;;;13.50;99.90;;;;;;5049470;28;20412;-70
2023/10/19 05:25:59;;;;;;;1999.90;999.90;;;13.60;99.90;;;;;;5055247;28;20028;-70
2023/10/19 05:28:25;;;;;;;1999.90;999.90;;;13.60;99.90;;;;;;5056154;28;20036;-71
2023/10/19 05:30:51;;;;;;;1999.90;999.90;;;13.60;99.90;;;;;;5044905;28;20029;-70
2023/10/19 05:33:23;;;;;;;1999.90;999.90;;;13.60;99.90;;;;;;5049844;28;20036;-70
2023/10/19 05:35:50;;;;;;;1999.90;999.90;;;13.60;99.90;;;;;;5050720;28;20060;-81
2023/10/19 05:38:16;;;;;;;1999.90;999.90;;;13.70;99.90;;;;;;5046133;28;20021;-70
2023/10/19 05:40:43;;;;;;;1999.90;999.90;;;13.70;99.90;;;;;;5053081;28;20049;-70
2023/10/19 05:43:09;;;;;;;1999.90;999.90;;;13.70;99.90;;;;;;5051330;28;20028;-70
2023/10/19 05:45:36;;;;;;;1999.90;999.90;;;13.70;99.90;;;;;;5054698;28;20040;-71
2023/10/19 05:48:08;;;;;;;1999.90;999.90;;;13.70;99.90;;;;;;5052693;28;20127;-70
2023/10/19 05:50:35;;;;;;;1999.90;999.90;;;13.70;99.90;;;;;;5054697;28;20041;-71
2023/10/19 05:53:03;;;;;;;1999.90;999.90;;;13.70;99.90;;;;;;5051220;28;20324;-71
2023/10/19 05:55:29;;;;;;;1999.90;999.90;;;13.70;99.90;;;;;;5055990;28;20021;-70
2023/10/19 05:57:55;;;;;;;1999.90;999.90;;;13.70;99.90;;;;;;5048421;28;20021;-70
2023/10/19 06:00:23;;;;;;;1999.90;999.90;;;13.70;99.90;;;;;;5044805;28;20025;-81
2023/10/19 06:02:49;;;;;;;1999.90;999.90;;;13.70;99.90;;;;;;5051738;28;20404;-70
2023/10/19 06:05:16;;;;;;;1999.90;999.90;;;13.80;99.90;;;;;;5051518;28;20028;-70
2023/10/19 06:07:46;;;;;;;1999.90;999.90;;;13.80;99.90;;;;;;5049276;28;20041;-70
2023/10/19 06:10:18;;;;;;;1999.90;999.90;;;13.80;99.90;;;;;;5040657;28;20045;-71
2023/10/19 06:12:45;;;;;;;1999.90;999.90;;;13.80;99.90;;;;;;5038111;28;20025;-71
2023/10/19 06:15:12;;;;;;;1999.90;999.90;;;13.80;99.90;;;;;;5037147;28;20037;-70
2023/10/19 06:17:42;;;;;;;1999.90;999.90;;;13.80;99.90;;;;;;5038667;28;20071;-70
2023/10/19 06:20:19;;;;;;;1999.90;999.90;;;13.80;99.90;;;;;;5041967;28;20021;-70
2023/10/19 06:22:50;;;;;;;1999.90;999.90;;;13.80;99.90;;;;;;5039784;28;20013;-81
2023/10/19 06:25:21;;;;;;;1999.90;999.90;;;13.80;99.90;;;;;;5042411;28;20056;-70
2023/10/19 06:27:48;;;;;;;1999.90;999.90;;;13.80;99.90;;;;;;5040658;28;20361;-70
2023/10/19 06:30:22;;;;;;;;;;;13.80;99.90;;;;;;5046118;28;20112;-71
2023/10/19 06:32:50;;;;;;;1999.90;999.90;;;13.80;99.90;;;;;;5036602;28;19991;-70
2023/10/19 06:35:18;;;;;;;1999.90;999.90;;;13.80;99.90;;;;;;5036010;28;20400;-71
2023/10/19 06:37:44;;;;;;;1999.90;999.90;;;13.80;99.90;;;;;;5042199;28;20386;-70
2023/10/19 06:40:11;;;;;;;1999.90;999.90;;;13.80;99.90;;;;;;5045754;28;20104;-71
2023/10/19 06:42:39;;;;;;;1999.90;999.90;;;13.90;99.90;;;;;;5042335;28;20115;-81
2023/10/19 06:45:05;;;;;;;1999.90;999.90;;;13.90;99.90;;;;;;5048068;28;20319;-71
2023/10/19 06:47:37;;;;;;;1999.90;999.90;;;13.80;99.90;;;;;;5062775;28;20052;-71
2023/10/19 06:50:07;;;;;;;1999.90;999.90;;;13.90;99.90;;;;;;5049054;28;20467;-71
2023/10/19 06:52:35;;;;;;;1999.90;999.90;;;13.90;99.90;;;;;;5038254;28;20029;-71
2023/10/19 06:55:03;;;;;;;1999.90;999.90;;;13.90;99.90;;;;;;5041592;28;20033;-71
2023/10/19 06:57:30;;;;;;;1999.90;999.90;;;13.90;99.90;;;;;;5033594;28;20013;-71
2023/10/19 06:59:55;;;;;;;1999.90;999.90;;;13.80;99.90;;;;;;5033155;28;20033;-71
2023/10/19 07:02:21;;;;;;;1999.90;999.90;;;13.90;99.90;;;;;;5036103;28;20039;-84
2023/10/19 07:04:47;;;;;;;1999.90;999.90;;;13.90;99.90;;;;;;5035915;28;20391;-71
2023/10/19 07:07:13;;;;;;;1999.90;999.90;;;13.90;99.90;;;;;;5033264;28;20060;-71
2023/10/19 07:09:41;;;;;;;1999.90;999.90;;;13.90;99.90;;;;;;5036904;28;20117;-71
2023/10/19 07:12:07;;;;;;;1999.90;999.90;;;13.90;99.90;;;;;;5041368;28;20114;-71
2023/10/19 07:14:33;;;;;;;;;;;13.90;99.90;;;;;;5043923;28;20026;-71
2023/10/19 07:16:59;;;;;;;1999.90;999.90;;;13.90;99.90;;;;;;5034130;28;19954;-71
2023/10/19 07:19:25;;;;;;;1999.90;999.90;;;14.00;99.90;;;;;;5033981;28;20101;-71
2023/10/19 07:21:57;;;;;;;1999.90;999.90;;;14.00;99.90;;;;;;5032690;28;20033;-81
2023/10/19 07:24:26;;;;;;;1999.90;999.90;;;14.00;99.90;;;;;;5039392;28;20056;-71
2023/10/19 07:27:04;;;;;;;1999.90;999.90;;;14.00;99.90;;;;;;5035174;28;20118;-82
2023/10/19 07:29:31;;;;;;;1999.90;999.90;;;14.10;99.90;;;;;;5034230;28;20026;-71
2023/10/19 07:31:58;;;;;;;1999.90;999.90;;;14.10;99.90;;;;;;5052772;28;20029;-72
2023/10/19 07:34:28;;;;;;;1999.90;999.90;;;14.10;99.90;;;;;;5050903;28;20028;-71
2023/10/19 07:36:55;;;;;;;1999.90;999.90;;;14.10;99.90;;;;;;5041951;28;20040;-71
2023/10/19 07:39:22;;;;;;;1999.90;999.90;;;14.20;99.90;;;;;;5049075;28;20021;-71
2023/10/19 07:41:48;;;;;;;1999.90;999.90;;;14.20;99.90;;;;;;5053807;28;20099;-72
2023/10/19 07:44:14;;;;;;;1999.90;999.90;;;14.20;99.90;;;;;;5041260;28;20029;-71
2023/10/19 07:46:40;;;;;;;1999.90;999.90;;;14.20;99.90;;;;;;5041135;28;20065;-72
2023/10/19 07:49:06;;;;;;;1999.90;999.90;;;14.20;99.90;;;;;;5052985;28;20304;-71
2023/10/19 07:51:32;;;;;;;1999.90;999.90;;;14.30;99.90;;;;;;5051562;28;20467;-71
2023/10/19 07:53:58;;;;;;;1999.90;999.90;;;14.30;99.90;;;;;;5043327;28;20037;-71
2023/10/19 07:56:24;;;;;;;1999.90;999.90;;;14.30;99.90;;;;;;5050711;28;20025;-71
2023/10/19 07:58:50;;;;;;;1999.90;999.90;;;14.30;99.90;;;;;;5053424;28;20017;-82
2023/10/19 08:01:16;;;;;;;1999.90;999.90;;;14.40;99.90;;;;;;5053736;28;20420;-71
2023/10/19 08:03:41;;;;;;;1999.90;999.90;;;14.40;99.90;;;;;;5048202;28;20180;-71
2023/10/19 08:06:07;;;;;;;1999.90;999.90;;;14.40;99.90;;;;;;5042967;28;20025;-71
2023/10/19 08:08:36;;;;;;;1999.90;999.90;;;14.40;99.90;;;;;;5052552;28;20078;-72
2023/10/19 08:11:02;;;;;;;1999.90;999.90;;;14.40;99.90;;;;;;5056451;28;20048;-71
2023/10/19 08:13:28;;;;;;;1999.90;999.90;;;14.40;99.90;;;;;;5041758;28;20032;-70
2023/10/19 08:15:55;;;;;;;1999.90;999.90;;;14.40;99.90;;;;;;5043267;28;20037;-84
2023/10/19 08:18:20;;;;;;;1999.90;999.90;;;14.40;99.90;;;;;;5042470;28;20037;-71
2023/10/19 08:20:48;;;;;;;1999.90;999.90;;;14.50;99.90;;;;;;5050817;28;20324;-71
2023/10/19 08:23:16;;;;;;;1999.90;999.90;;;14.50;99.90;;;;;;5042542;28;20018;-70
2023/10/19 08:25:44;;;;;;;1999.90;999.90;;;14.50;99.90;;;;;;5053088;28;20384;-71
2023/10/19 08:28:11;;;;;;;1999.90;999.90;;;14.50;99.90;;;;;;5058511;28;20029;-71
2023/10/19 08:30:37;;;;;;;1999.90;999.90;;;14.60;99.90;;;;;;5055718;28;20029;-71
2023/10/19 08:33:03;;;;;;;1999.90;999.90;;;14.60;99.90;;;;;;5050015;28;20025;-72
2023/10/19 08:35:30;;;;;;;1999.90;999.90;;;14.60;99.90;;;;;;5055326;28;20029;-71
2023/10/19 08:37:57;;;;;;;1999.90;999.90;;;14.70;99.90;;;;;;5054028;28;20364;-71
2023/10/19 08:40:26;;;;;;;1999.90;999.90;;;14.70;99.90;;;;;;5049665;28;20319;-71
2023/10/19 08:42:53;;;;;;;1999.90;999.90;;;14.70;99.90;;;;;;5048563;28;20154;-71
2023/10/19 08:45:21;;;;;;;1999.90;999.90;;;14.70;99.90;;;;;;5040223;28;20013;-70
2023/10/19 08:48:00;;;;;;;1999.90;999.90;;;14.70;99.90;;;;;;5042255;28;20025;-70
2023/10/19 08:50:28;;;;;;;1999.90;999.90;;;14.80;99.90;;;;;;5046943;28;20309;-71
2023/10/19 08:52:56;;;;;;;1999.90;999.90;;;14.80;99.90;;;;;;5049967;28;20028;-71
2023/10/19 08:55:23;;;;;;;1999.90;999.90;;;14.90;99.90;;;;;;5037954;28;20056;-76
2023/10/19 08:57:50;;;;;;;1999.90;999.90;;;14.90;99.90;;;;;;5043820;28;20436;-70
2023/10/19 09:00:19;;;;;;;;;;;15.00;99.90;;;;;;5043489;28;20025;-71
2023/10/19 09:02:48;;;;;;;1999.90;999.90;;;15.00;99.90;;;;;;5052921;28;20219;-71
2023/10/19 09:05:25;;;;;;;1999.90;999.90;;;15.00;99.90;;;;;;5038788;28;20095;-71
2023/10/19 09:07:54;;;;;;;1999.90;999.90;;;15.00;99.90;;;;;;5047946;28;20017;-71
2023/10/19 09:10:28;;;;;;;1999.90;999.90;;;15.00;99.90;;;;;;5048934;28;20064;-83
2023/10/19 09:13:10;;;;;;;1999.90;999.90;;;15.10;99.90;;;;;;5048017;28;20021;-71
2023/10/19 09:15:39;;;;;;;1999.90;999.90;;;15.20;99.90;;;;;;5043756;28;20109;-71
2023/10/19 09:18:19;;;;;;;1999.90;999.90;;;15.30;99.90;;;;;;5047395;28;20304;-71
2023/10/19 09:20:52;;;;;;;1999.90;999.90;;;15.30;99.90;;;;;;5045695;28;20356;-83
2023/10/19 09:23:22;;;;;;;1999.90;999.90;;;15.50;99.90;;;;;;5050902;28;20025;-71
2023/10/19 09:25:55;;;;;;;1999.90;999.90;;;15.70;99.90;;;;;;5052523;28;20025;-71
2023/10/19 09:28:23;;;;;;;1999.90;999.90;;;16.00;99.90;;;;;;5047917;28;20104;-71
2023/10/19 09:30:50;;;;;;;1999.90;999.90;;;16.30;99.90;;;;;;5046368;28;20024;-70
2023/10/19 09:33:17;;;;;;;1999.90;999.90;;;16.40;99.90;;;;;;5046762;28;20025;-70
2023/10/19 09:35:53;;;;;;;1999.90;999.90;;;16.50;99.90;;;;;;5047607;28;20032;-70
2023/10/19 09:38:24;;;;;;;1999.90;999.90;;;16.50;99.90;;;;;;5045908;28;20013;-70
2023/10/19 09:41:01;;;;;;;1999.90;999.90;;;16.60;99.90;;;;;;5046310;28;20429;-71
2023/10/19 09:43:37;;;;;;;1999.90;999.90;;;16.60;99.90;;;;;;5050279;28;20033;-87
2023/10/19 09:46:11;;;;;;;1999.90;999.90;;;16.60;99.90;;;;;;5047216;28;20060;-71
2023/10/19 09:48:42;;;;;;;1999.90;999.90;;;16.60;99.90;;;;;;5037187;28;20060;-71
2023/10/19 09:51:09;;;;;;;1999.90;999.90;;;16.60;99.90;;;;;;5056730;28;20022;-69
2023/10/19 09:53:38;;;;;;;1999.90;999.90;;;16.60;99.90;;;;;;5049161;28;20022;-71
2023/10/19 09:56:13;;;;;;;1999.90;999.90;;;16.70;99.90;;;;;;5040736;28;20012;-70
2023/10/19 09:58:49;;;;;;;1999.90;999.90;;;16.80;99.90;;;;;;5049509;28;20018;-71
2023/10/19 10:01:15;;;;;;;1999.90;999.90;;;16.90;99.90;;;;;;5035894;28;20083;-70
2023/10/19 10:03:46;;;;;;;1999.90;999.90;;;17.00;99.90;;;;;;5056342;28;20037;-70
2023/10/19 10:06:14;;;;;;;1999.90;999.90;;;17.10;99.90;;;;;;5052844;28;20119;-71
2023/10/19 10:08:42;;;;;;;1999.90;999.90;;;17.30;99.90;;;;;;5037960;28;20040;-70
2023/10/19 10:11:26;;;;;;;1999.90;999.90;;;17.50;99.90;;;;;;5047874;28;20021;-71
2023/10/19 10:13:53;;;;;;;1999.90;999.90;;;17.60;99.90;;;;;;5054348;28;20029;-71
2023/10/19 10:16:26;;;;;;;1999.90;999.90;;;17.70;99.90;;;;;;5058386;28;20307;-70
2023/10/19 10:19:01;;;;;;;1999.90;999.90;;;17.70;99.90;;;;;;5053040;28;20487;-84
2023/10/19 10:21:30;;;;;;;1999.90;999.90;;;17.70;99.90;;;;;;5047952;28;20116;-71
2023/10/19 10:24:03;;;;;;;1999.90;999.90;;;17.60;99.90;;;;;;5046051;28;20030;-70
2023/10/19 10:26:35;;;;;;;1999.90;999.90;;;17.50;99.90;;;;;;5041585;28;20082;-70
2023/10/19 10:29:23;;;;;;;1999.90;999.90;;;17.50;99.90;;;;;;5046191;28;20029;-71
2023/10/19 10:31:50;;;;;;;1999.90;999.90;;;17.30;99.90;;;;;;5043386;28;20025;-71
2023/10/19 10:34:33;;;;;;;1999.90;999.90;;;17.20;99.90;;;;;;5041605;28;20048;-70
2023/10/19 10:37:09;;;;;;;1999.90;999.90;;;17.20;99.90;;;;;;5034813;28;20026;-84
2023/10/19 10:39:37;;;;;;;1999.90;999.90;;;17.10;99.90;;;;;;5037099;28;20017;-70
2023/10/19 10:42:05;;;;;;;1999.90;999.90;;;17.10;99.90;;;;;;5040121;28;20398;-70
2023/10/19 10:44:39;;;;;;;1999.90;999.90;;;17.00;99.90;;;;;;5048876;28;20025;-70
2023/10/19 10:47:10;;;;;;;1999.90;999.90;;;16.90;99.90;;;;;;5048048;28;20115;-71
2023/10/19 10:49:57;;;;;;;1999.90;999.90;;;16.90;99.90;;;;;;5048981;28;20045;-71
2023/10/19 10:52:34;;;;;;;1999.90;999.90;;;16.90;99.90;;;;;;5041074;28;20060;-70
2023/10/19 10:55:13;;;;;;;1999.90;999.90;;;16.80;99.90;;;;;;5033865;28;20053;-71
2023/10/19 10:57:41;;;;;;;1999.90;999.90;;;16.80;99.90;;;;;;5041944;28;20308;-70
2023/10/19 11:00:18;;;;;;;1999.90;999.90;;;16.80;99.90;;;;;;5039145;28;20029;-71
2023/10/19 11:02:47;;;;;;;1999.90;999.90;;;16.80;99.90;;;;;;5038462;28;20033;-71
2023/10/19 11:05:14;;;;;;;1999.90;999.90;;;16.80;99.90;;;;;;5037332;28;20454;-70
2023/10/19 11:07:41;;;;;;;1999.90;999.90;;;16.80;99.90;;;;;;5043972;28;20079;-71
2023/10/19 11:10:11;;;;;;;1999.90;999.90;;;16.80;99.90;;;;;;5049713;28;20033;-71
2023/10/19 11:12:37;;;;;;;1999.90;999.90;;;16.90;99.90;;;;;;5057109;28;20048;-70
2023/10/19 11:15:09;;;;;;;1999.90;999.90;;;17.00;99.90;;;;;;5051511;28;20025;-70
2023/10/19 11:17:44;;;;;;;1999.90;999.90;;;17.20;99.90;;;;;;5047978;28;20121;-71
2023/10/19 11:20:20;;;;;;;1999.90;999.90;;;17.50;99.90;;;;;;5064384;28;20021;-71
2023/10/19 11:22:50;;;;;;;1999.90;999.90;;;17.70;99.90;;;;;;5054908;28;20423;-82
2023/10/19 11:25:21;;;;;;;1999.90;999.90;;;17.80;99.90;;;;;;5052037;28;20013;-70
2023/10/19 11:27:50;;;;;;;1999.90;999.90;;;17.80;99.90;;;;;;5046456;28;20417;-70
2023/10/19 11:30:32;;;;;;;1999.90;999.90;;;17.80;99.90;;;;;;5039823;28;20407;-81
2023/10/19 11:33:00;;;;;;;1999.90;999.90;;;17.70;99.90;;;;;;5052328;28;20108;-70
2023/10/19 11:35:31;;;;;;;1999.90;999.90;;;17.60;99.90;;;;;;5066312;28;20055;-70
2023/10/19 11:38:04;;;;;;;1999.90;999.90;;;17.60;99.90;;;;;;5054571;28;20445;-70
2023/10/19 11:40:30;;;;;;;1999.90;999.90;;;17.60;99.90;;;;;;5042186;28;20087;-70
2023/10/19 11:42:57;;;;;;;1999.90;999.90;;;17.60;99.90;;;;;;5041453;28;20025;-70
2023/10/19 11:45:26;;;;;;;1999.90;999.90;;;17.60;99.90;;;;;;5040749;28;20116;-74
2023/10/19 11:47:52;;;;;;;1999.90;999.90;;;17.60;99.90;;;;;;5053584;28;20038;-70
2023/10/19 11:50:19;;;;;;;;;;;17.50;99.90;;;;;;5048709;28;20037;-70
2023/10/19 11:52:48;;;;;;;;;;;17.50;99.90;;;;;;5050633;28;19915;-70
2023/10/19 11:55:14;;;;;;;1999.90;999.90;;;17.50;99.90;;;;;;5046739;28;19935;-83
2023/10/19 11:57:43;;;;;;;;;;;17.50;99.90;;;;;;5063157;28;20078;-70
2023/10/19 12:00:13;;;;;;;1999.90;999.90;;;17.60;99.90;;;;;;5060847;28;19917;-70
2023/10/19 12:02:43;;;;;;;1999.90;999.90;;;17.70;99.90;;;;;;5048824;28;20416;-70
2023/10/19 12:05:12;;;;;;;1999.90;999.90;;;17.90;99.90;;;;;;5049644;28;20134;-84
2023/10/19 12:07:38;;;;;;;1999.90;999.90;;;18.20;99.90;;;;;;5052031;28;20091;-70
2023/10/19 12:10:09;;;;;;;1999.90;999.90;;;18.40;99.90;;;;;;5059880;28;20033;-71
2023/10/19 12:12:39;;;;;;;1999.90;999.90;;;18.60;99.90;;;;;;5063549;28;20021;-71
2023/10/19 12:15:05;;;;;;;1999.90;999.90;;;18.50;99.90;;;;;;5060098;28;20059;-70
2023/10/19 12:17:32;;;;;;;1999.90;999.90;;;18.50;99.90;;;;;;5050217;28;20100;-71
2023/10/19 12:19:58;;;;;;;1999.90;999.90;;;18.40;99.90;;;;;;5039658;28;20038;-70
2023/10/19 12:22:28;;;;;;;1999.90;999.90;;;18.50;99.90;;;;;;5046188;28;20022;-70
2023/10/19 12:24:56;;;;;;;1999.90;999.90;;;18.50;99.90;;;;;;5045743;28;20052;-71
2023/10/19 12:27:24;;;;;;;1999.90;999.90;;;18.50;99.90;;;;;;5049453;28;20095;-70
2023/10/19 12:29:52;;;;;;;1999.90;999.90;;;18.50;99.90;;;;;;5046225;28;20048;-70
2023/10/19 12:32:18;;;;;;;1999.90;999.90;;;18.40;99.90;;;;;;5045666;28;20052;-86
2023/10/19 12:34:44;;;;;;;1999.90;999.90;;;18.30;99.90;;;;;;5047523;28;20032;-71